Time;durP1;ratioP1;P1;durP2;ratioP2;P2;SDS_P1;SDS_P2;PMS_P1;PMS_P2;Temp;Humidity;BMP_temperature;BMP_pressure;BME280_temperature;BME280_humidity;BME280_pressure;Samples;Min_cycle;Max_cycle;Signal;HPM_P1;HPM_P2
2021/03/18 00:01:00;;;;;;;6.90;3.97;;;;;;;1.81;61.98;99746.56;5071017;28;20051;-62
2021/03/18 00:03:29;;;;;;;7.57;3.88;;;;;;;1.69;62.29;99749.13;5072187;28;20037;-62
2021/03/18 00:05:57;;;;;;;6.43;3.25;;;;;;;1.60;62.65;99749.00;5072015;28;20490;-63
2021/03/18 00:08:24;;;;;;;4.55;2.90;;;;;;;1.58;62.81;99756.06;5071959;28;20049;-63
2021/03/18 00:10:53;;;;;;;5.65;3.25;;;;;;;1.58;63.15;99751.69;5072089;28;20053;-63
2021/03/18 00:13:22;;;;;;;5.40;3.05;;;;;;;1.59;63.15;99747.31;5085530;28;20044;-62
2021/03/18 00:15:49;;;;;;;4.55;2.75;;;;;;;1.54;63.28;99752.03;5091064;28;20048;-62
2021/03/18 00:18:17;;;;;;;3.78;2.85;;;;;;;1.45;63.58;99751.75;5078392;28;20052;-62
2021/03/18 00:20:44;;;;;;;3.78;2.88;;;;;;;1.43;63.88;99742.41;5070752;28;20518;-62
2021/03/18 00:23:12;;;;;;;6.20;3.08;;;;;;;1.43;63.88;99752.81;5072080;28;20049;-62
2021/03/18 00:25:39;;;;;;;7.95;3.55;;;;;;;1.38;64.21;99744.47;5070533;28;20537;-62
2021/03/18 00:28:06;;;;;;;7.47;3.60;;;;;;;1.43;63.89;99740.63;5071738;28;20036;-62
2021/03/18 00:30:33;;;;;;;5.38;3.10;;;;;;;1.41;64.12;99726.03;5071816;28;20045;-62
2021/03/18 00:33:00;;;;;;;5.70;2.88;;;;;;;1.47;64.26;99728.22;5071939;28;20051;-62
2021/03/18 00:35:28;;;;;;;3.65;2.88;;;;;;;1.52;64.25;99720.03;5071746;28;20116;-62
2021/03/18 00:37:57;;;;;;;4.57;2.78;;;;;;;1.55;64.20;99717.19;5071881;28;20044;-62
2021/03/18 00:40:29;;;;;;;7.55;3.92;;;;;;;1.49;64.21;99711.50;5071725;28;20033;-62
2021/03/18 00:42:57;;;;;;;5.85;3.67;;;;;;;1.41;64.62;99711.22;5071778;28;20274;-62
2021/03/18 00:45:27;;;;;;;8.38;3.65;;;;;;;1.36;64.60;99710.75;5071670;28;20036;-62
2021/03/18 00:47:56;;;;;;;5.45;4.13;;;;;;;1.26;64.86;99708.91;5071628;28;20045;-62
2021/03/18 00:50:29;;;;;;;6.75;4.07;;;;;;;1.26;64.63;99703.69;5071640;28;20040;-62
2021/03/18 00:52:57;;;;;;;10.88;3.83;;;;;;;1.10;64.79;99702.22;5070507;28;20479;-62
2021/03/18 00:55:25;;;;;;;7.15;3.45;;;;;;;1.09;64.86;99690.13;5070423;28;20572;-63
2021/03/18 00:57:52;;;;;;;5.75;3.38;;;;;;;1.08;64.71;99695.44;5071468;28;20037;-62
2021/03/18 01:00:23;;;;;;;8.18;3.60;;;;;;;1.10;64.95;99698.75;5070365;28;20404;-62
2021/03/18 01:02:53;;;;;;;4.35;3.42;;;;;;;1.12;65.04;99697.72;5070247;28;20448;-62
2021/03/18 01:05:27;;;;;;;5.47;3.33;;;;;;;1.11;65.27;99695.22;5070022;28;20041;-62
2021/03/18 01:07:56;;;;;;;7.30;3.92;;;;;;;1.18;65.13;99692.06;5070140;28;20136;-62
2021/03/18 01:10:25;;;;;;;4.65;2.92;;;;;;;1.14;64.72;99695.84;5071406;28;20049;-62
2021/03/18 01:12:52;;;;;;;5.55;3.28;;;;;;;0.95;65.04;99701.53;5071451;28;20040;-62
2021/03/18 01:15:19;;;;;;;8.00;3.60;;;;;;;0.97;65.60;99704.00;5070046;28;20044;-62
2021/03/18 01:17:46;;;;;;;6.72;2.88;;;;;;;1.06;65.39;99713.78;5074638;28;20043;-62
2021/03/18 01:20:16;;;;;;;4.53;3.15;;;;;;;1.11;65.49;99706.47;5075172;28;20040;-62
2021/03/18 01:22:42;;;;;;;8.10;3.38;;;;;;;1.12;65.46;99708.13;5075233;28;20051;-62
2021/03/18 01:25:10;;;;;;;5.90;3.70;;;;;;;1.14;65.27;99708.88;5075259;28;20048;-62
2021/03/18 01:27:37;;;;;;;4.93;3.20;;;;;;;1.16;65.28;99711.34;5074987;28;20053;-62
2021/03/18 01:30:08;;;;;;;6.65;3.85;;;;;;;1.14;65.46;99716.69;5074987;28;20044;-62
2021/03/18 01:32:36;;;;;;;5.57;3.40;;;;;;;1.14;65.52;99711.47;5074857;28;20044;-62
2021/03/18 01:35:05;;;;;;;7.53;4.25;;;;;;;1.10;65.68;99709.16;5074405;28;20120;-62
2021/03/18 01:37:33;;;;;;;6.97;3.75;;;;;;;1.08;65.54;99705.84;5074712;28;20410;-62
2021/03/18 01:40:00;;;;;;;6.63;3.95;;;;;;;1.11;65.74;99713.47;5074639;28;20044;-62
2021/03/18 01:42:27;;;;;;;6.82;3.58;;;;;;;1.19;65.73;99711.13;5074690;28;20070;-62
2021/03/18 01:44:53;;;;;;;8.18;3.80;;;;;;;1.19;65.41;99709.34;5074495;28;20044;-63
2021/03/18 01:47:20;;;;;;;6.10;3.65;;;;;;;1.16;65.56;99719.16;5073467;28;20406;-61
2021/03/18 01:49:47;;;;;;;5.35;3.78;;;;;;;1.07;65.52;99714.63;5074453;28;20044;-62
2021/03/18 01:52:14;;;;;;;5.45;3.67;;;;;;;1.04;65.61;99707.84;5074579;28;20430;-63
2021/03/18 01:54:41;;;;;;;4.88;3.50;;;;;;;1.03;65.64;99707.97;5073045;28;20634;-61
2021/03/18 01:57:08;;;;;;;6.85;3.78;;;;;;;1.04;65.61;99709.63;5074437;28;20045;-61
2021/03/18 01:59:35;;;;;;;7.60;3.50;;;;;;;1.02;65.78;99709.75;5074500;28;20448;-62
2021/03/18 02:02:02;;;;;;;7.20;3.90;;;;;;;0.96;65.79;99721.41;5074411;28;20048;-61
2021/03/18 02:04:29;;;;;;;9.60;4.45;;;;;;;0.97;65.68;99719.63;5074151;28;20055;-61
2021/03/18 02:06:56;;;;;;;7.07;3.85;;;;;;;0.90;65.60;99729.66;5074238;28;20040;-61
2021/03/18 02:09:23;;;;;;;6.85;3.75;;;;;;;0.93;65.84;99726.81;5074120;28;20052;-61
2021/03/18 02:11:51;;;;;;;6.65;4.13;;;;;;;0.99;65.81;99725.59;5074186;28;20049;-61
2021/03/18 02:14:18;;;;;;;7.80;3.45;;;;;;;1.00;65.60;99735.06;5075028;28;20041;-61
2021/03/18 02:16:47;;;;;;;5.70;3.50;;;;;;;0.96;65.75;99728.41;5072822;28;20044;-62
2021/03/18 02:19:34;;;;;;;4.03;3.10;;;;;;;0.88;65.70;99734.13;5074130;28;20048;-62
2021/03/18 02:22:35;;;;;;;5.97;3.25;;;;;;;0.82;65.82;99725.94;5074084;28;20044;-63
2021/03/18 02:25:06;;;;;;;8.10;3.72;;;;;;;0.82;65.77;99731.97;5073873;28;20044;-62
2021/03/18 02:28:19;;;;;;;6.43;3.40;;;;;;;0.85;66.11;99729.16;5072792;28;20509;-62
2021/03/18 02:30:58;;;;;;;3.80;2.90;;;;;;;0.79;65.86;99723.56;5055136;28;20059;-62
2021/03/18 02:34:02;;;;;;;4.32;3.25;;;;;;;0.77;66.19;99721.03;5073786;28;20055;-62
2021/03/18 02:36:44;;;;;;;7.93;4.00;;;;;;;0.74;66.24;99722.09;5072383;28;20521;-62
2021/03/18 02:39:14;;;;;;;5.07;3.30;;;;;;;0.64;66.10;99728.88;5073573;28;20730;-63
2021/03/18 02:41:45;;;;;;;5.68;3.65;;;;;;;0.55;66.21;99723.50;5074397;28;20036;-63
2021/03/18 02:44:16;;;;;;;6.57;3.80;;;;;;;0.56;66.38;99714.75;5073625;28;20040;-62
2021/03/18 02:46:43;;;;;;;5.88;3.88;;;;;;;0.56;66.54;99718.16;5073782;28;20052;-63
2021/03/18 02:49:13;;;;;;;6.47;4.07;;;;;;;0.56;66.48;99722.53;5073624;28;20044;-62
2021/03/18 02:51:43;;;;;;;4.15;3.35;;;;;;;0.55;66.50;99721.72;5074213;28;20517;-63
2021/03/18 02:54:12;;;;;;;7.55;3.53;;;;;;;0.47;66.61;99714.44;5072592;28;20059;-62
2021/03/18 02:56:42;;;;;;;6.80;3.72;;;;;;;0.45;66.89;99713.72;5073642;28;20036;-62
2021/03/18 02:59:14;;;;;;;7.60;3.53;;;;;;;0.46;67.05;99718.00;5073419;28;20045;-62
2021/03/18 03:01:42;;;;;;;4.32;3.25;;;;;;;0.45;66.90;99713.72;5073819;28;20481;-62
2021/03/18 03:04:10;;;;;;;6.43;3.50;;;;;;;0.39;66.46;99721.13;5073588;28;20418;-62
2021/03/18 03:06:37;;;;;;;5.40;3.20;;;;;;;0.28;67.09;99719.22;5073658;28;20041;-62
2021/03/18 03:09:07;;;;;;;7.28;3.95;;;;;;;0.19;67.22;99728.50;5073192;28;20045;-62
2021/03/18 03:11:36;;;;;;;4.57;3.53;;;;;;;0.12;67.60;99729.00;5071739;28;20044;-63
2021/03/18 03:14:04;;;;;;;7.65;3.97;;;;;;;0.05;67.45;99727.78;5072930;28;20048;-63
2021/03/18 03:16:31;;;;;;;5.97;3.70;;;;;;;-0.12;67.86;99736.72;5072811;28;20074;-62
2021/03/18 03:19:00;;;;;;;6.50;3.13;;;;;;;-0.16;68.08;99730.88;5072941;28;20051;-62
2021/03/18 03:21:27;;;;;;;6.93;3.22;;;;;;;-0.19;68.29;99736.28;5072866;28;20040;-62
2021/03/18 03:23:55;;;;;;;4.82;2.75;;;;;;;-0.17;68.61;99728.38;5072813;28;20052;-62
2021/03/18 03:26:24;;;;;;;6.80;2.90;;;;;;;-0.18;68.23;99730.13;5073032;28;20039;-62
2021/03/18 03:28:53;;;;;;;4.05;2.53;;;;;;;-0.30;68.32;99723.97;5072682;28;20064;-62
2021/03/18 03:31:20;;;;;;;6.63;2.80;;;;;;;-0.34;68.57;99725.13;5071483;28;20049;-62
2021/03/18 03:34:01;;;;;;;5.50;2.95;;;;;;;-0.36;69.00;99724.41;5071109;28;20049;-62
2021/03/18 03:36:28;;;;;;;8.52;2.60;;;;;;;-0.35;69.00;99728.66;5072577;28;20040;-62
2021/03/18 03:38:55;;;;;;;3.55;2.65;;;;;;;-0.31;68.81;99730.13;5072168;28;20044;-62
2021/03/18 03:41:23;;;;;;;7.97;3.30;;;;;;;-0.34;68.74;99724.28;5072616;28;20050;-62
2021/03/18 03:43:50;;;;;;;6.97;3.45;;;;;;;-0.38;69.13;99722.81;5072667;28;20117;-62
2021/03/18 03:46:16;;;;;;;4.13;2.50;;;;;;;-0.40;69.29;99722.94;5073593;28;20040;-62
2021/03/18 03:48:44;;;;;;;8.20;2.78;;;;;;;-0.39;68.91;99727.19;5090919;28;20115;-62
2021/03/18 03:51:11;;;;;;;5.57;3.10;;;;;;;-0.44;68.97;99726.66;5090781;28;20041;-61
2021/03/18 03:53:44;;;;;;;5.13;3.28;;;;;;;-0.40;68.98;99725.53;5073466;28;20052;-62
2021/03/18 03:56:20;;;;;;;4.78;3.38;;;;;;;-0.46;69.08;99717.28;5072340;28;20048;-63
2021/03/18 03:58:51;;;;;;;7.28;3.50;;;;;;;-0.53;69.05;99722.06;5072387;28;20143;-62
2021/03/18 04:01:27;;;;;;;4.25;3.15;;;;;;;-0.61;69.33;99721.75;5072374;28;20040;-66
2021/03/18 04:04:03;;;;;;;6.60;3.85;;;;;;;-0.65;69.63;99715.09;5072419;28;20052;-63
2021/03/18 04:06:36;;;;;;;6.05;2.92;;;;;;;-0.67;69.73;99712.56;5072141;28;20059;-62
2021/03/18 04:09:06;;;;;;;6.10;3.75;;;;;;;-0.61;69.72;99713.94;5072242;28;20063;-62
2021/03/18 04:11:34;;;;;;;10.55;3.78;;;;;;;-0.61;69.70;99717.38;5072014;28;20048;-62
2021/03/18 04:14:02;;;;;;;8.75;3.88;;;;;;;-0.65;69.58;99718.50;5072189;28;20040;-62
2021/03/18 04:16:30;;;;;;;7.05;3.80;;;;;;;-0.70;69.77;99720.53;5071702;28;20059;-62
2021/03/18 04:18:59;;;;;;;6.32;3.97;;;;;;;-0.72;69.93;99713.81;5071999;28;20064;-63
2021/03/18 04:21:29;;;;;;;7.32;4.20;;;;;;;-0.72;69.93;99713.81;5071963;28;20045;-63
2021/03/18 04:24:00;;;;;;;8.93;3.72;;;;;;;-0.74;70.08;99716.47;5072041;28;20040;-63
2021/03/18 04:26:28;;;;;;;6.57;3.35;;;;;;;-0.70;70.33;99710.16;5072175;28;20501;-63
2021/03/18 04:28:56;;;;;;;5.50;3.10;;;;;;;-0.69;69.92;99713.63;5072007;28;20040;-63
2021/03/18 04:31:24;;;;;;;5.40;3.35;;;;;;;-0.78;69.97;99709.81;5071966;28;20041;-63
2021/03/18 04:33:51;;;;;;;7.10;3.17;;;;;;;-0.81;70.45;99710.03;5071857;28;20047;-63
2021/03/18 04:36:18;;;;;;;7.82;2.95;;;;;;;-0.84;70.39;99711.06;5071658;28;20037;-63
2021/03/18 04:38:45;;;;;;;3.85;2.65;;;;;;;-0.92;70.69;99707.28;5071669;28;20047;-63
2021/03/18 04:41:12;;;;;;;6.03;3.40;;;;;;;-0.86;71.05;99715.53;5071794;28;20048;-63
2021/03/18 04:43:39;;;;;;;6.72;3.90;;;;;;;-0.82;70.48;99708.34;5071750;28;20045;-62
2021/03/18 04:46:08;;;;;;;7.22;3.92;;;;;;;-0.88;70.50;99701.78;5071816;28;20045;-61
2021/03/18 04:48:38;;;;;;;17.27;9.15;;;;;;;-0.82;70.71;99695.38;5071750;28;20048;-62
2021/03/18 04:51:07;;;;;;;18.52;10.18;;;;;;;-0.72;70.88;99703.41;5075894;28;20040;-61
2021/03/18 04:53:34;;;;;;;22.73;9.88;;;;;;;-0.63;70.39;99708.84;5075664;28;20051;-62
2021/03/18 04:56:04;;;;;;;10.02;3.78;;;;;;;-0.70;70.54;99719.72;5074261;28;20572;-63
2021/03/18 04:58:31;;;;;;;6.38;4.05;;;;;;;-0.73;70.08;99707.78;5075990;28;20400;-63
2021/03/18 05:00:59;;;;;;;5.50;3.53;;;;;;;-0.92;70.42;99707.28;5075705;28;20487;-63
2021/03/18 05:03:29;;;;;;;9.88;4.00;;;;;;;-0.90;70.53;99708.88;5075622;28;20044;-62
2021/03/18 05:05:59;;;;;;;6.68;3.47;;;;;;;-0.93;70.60;99701.25;5075379;28;20066;-63
2021/03/18 05:08:27;;;;;;;5.80;3.42;;;;;;;-0.95;70.72;99705.69;5074091;28;20044;-63
2021/03/18 05:10:55;;;;;;;7.13;3.65;;;;;;;-0.95;70.87;99697.09;5074358;28;20043;-62
2021/03/18 05:13:25;;;;;;;9.52;3.60;;;;;;;-0.92;70.87;99702.09;5075412;28;20062;-63
2021/03/18 05:15:53;;;;;;;6.88;3.65;;;;;;;-0.91;70.82;99701.16;5075021;28;20044;-62
2021/03/18 05:18:21;;;;;;;5.35;3.10;;;;;;;-0.89;70.99;99707.09;5075048;28;20071;-62
2021/03/18 05:20:48;;;;;;;7.75;3.25;;;;;;;-0.88;71.12;99703.56;5074899;28;20051;-62
2021/03/18 05:23:17;;;;;;;8.55;3.33;;;;;;;-0.83;71.08;99704.91;5075113;28;20049;-63
2021/03/18 05:25:45;;;;;;;5.90;3.42;;;;;;;-0.79;70.99;99713.34;5075063;28;20044;-62
2021/03/18 05:28:13;;;;;;;7.28;3.13;;;;;;;-0.76;70.88;99710.56;5075021;28;20193;-62
2021/03/18 05:30:40;;;;;;;7.55;4.35;;;;;;;-0.75;70.75;99710.47;5074887;28;20060;-62
2021/03/18 05:33:07;;;;;;;9.25;4.22;;;;;;;-0.75;70.69;99710.47;5075552;28;20041;-62
2021/03/18 05:35:38;;;;;;;10.43;4.93;;;;;;;-0.72;70.75;99699.06;5075162;28;20525;-61
2021/03/18 05:38:06;;;;;;;10.65;4.88;;;;;;;-0.69;70.85;99706.66;5074677;28;20495;-62
2021/03/18 05:40:34;;;;;;;11.20;5.05;;;;;;;-0.70;70.71;99707.56;5074972;28;20101;-62
2021/03/18 05:43:01;;;;;;;20.17;7.57;;;;;;;-0.64;70.65;99701.97;5074944;28;20044;-62
2021/03/18 05:45:29;;;;;;;17.60;7.35;;;;;;;-0.57;70.49;99705.03;5075192;28;20043;-63
2021/03/18 05:47:58;;;;;;;13.52;5.68;;;;;;;-0.60;70.65;99698.25;5074758;28;20045;-63
2021/03/18 05:50:30;;;;;;;12.23;6.22;;;;;;;-0.53;70.68;99701.28;5074804;28;20509;-62
2021/03/18 05:53:00;;;;;;;14.90;5.40;;;;;;;-0.54;70.07;99700.44;5073303;28;20044;-62
2021/03/18 05:55:27;;;;;;;14.13;5.20;;;;;;;-0.64;70.19;99703.75;5073222;28;20384;-62
2021/03/18 05:57:55;;;;;;;17.40;6.10;;;;;;;-0.75;70.58;99697.47;5074450;28;20513;-62
2021/03/18 06:00:24;;;;;;;16.67;6.32;;;;;;;-0.65;70.87;99702.09;5074412;28;20060;-62
2021/03/18 06:02:51;;;;;;;14.55;6.15;;;;;;;-0.52;70.74;99700.34;5074220;28;20041;-62
2021/03/18 06:05:19;;;;;;;14.85;5.97;;;;;;;-0.44;70.50;99697.25;5073045;28;20048;-61
2021/03/18 06:07:48;;;;;;;12.82;6.13;;;;;;;-0.38;70.38;99694.25;5074293;28;20048;-61
2021/03/18 06:10:17;;;;;;;13.93;6.32;;;;;;;-0.34;70.04;99693.94;5073007;28;20505;-61
2021/03/18 06:12:45;;;;;;;20.63;6.50;;;;;;;-0.39;69.85;99684.78;5074438;28;20102;-62
2021/03/18 06:15:14;;;;;;;13.23;5.63;;;;;;;-0.40;69.96;99685.72;5074176;28;20040;-62
2021/03/18 06:17:41;;;;;;;11.25;5.22;;;;;;;-0.31;70.20;99682.53;5074132;28;20051;-63
2021/03/18 06:20:12;;;;;;;8.23;4.00;;;;;;;-0.24;70.02;99685.56;5074042;28;20410;-62
2021/03/18 06:22:41;;;;;;;7.95;3.72;;;;;;;-0.20;69.65;99681.81;5074047;28;20051;-62
2021/03/18 06:25:27;;;;;;;9.38;4.10;;;;;;;-0.20;69.37;99674.03;5073896;28;20051;-62
2021/03/18 06:28:15;;;;;;;8.88;4.10;;;;;;;-0.21;69.45;99678.34;5074017;28;20774;-62
2021/03/18 06:30:56;;;;;;;8.70;4.18;;;;;;;-0.18;69.45;99682.53;5073928;28;20059;-62
2021/03/18 06:33:24;;;;;;;9.93;5.00;;;;;;;-0.13;69.34;99683.88;5073948;28;20044;-63
2021/03/18 06:35:51;;;;;;;10.88;4.57;;;;;;;-0.09;69.04;99677.53;5073618;28;20072;-62
2021/03/18 06:38:25;;;;;;;8.20;4.43;;;;;;;-0.10;68.81;99673.28;5073743;28;20068;-63
2021/03/18 06:40:52;;;;;;;10.20;4.90;;;;;;;-0.07;68.98;99678.28;5073858;28;20414;-63
2021/03/18 06:43:18;;;;;;;9.25;5.13;;;;;;;0.01;68.91;99684.72;5073780;28;20040;-63
2021/03/18 06:45:46;;;;;;;9.48;4.22;;;;;;;-0.01;69.10;99684.81;5073714;28;20050;-62
2021/03/18 06:48:15;;;;;;;11.02;4.35;;;;;;;0.10;69.31;99686.69;5073352;28;20498;-62
2021/03/18 06:50:44;;;;;;;11.70;4.78;;;;;;;0.17;68.62;99688.78;5073440;28;20049;-62
2021/03/18 06:53:17;;;;;;;7.38;4.68;;;;;;;0.29;68.94;99694.91;5072163;28;20051;-63
2021/03/18 06:55:44;;;;;;;9.15;4.63;;;;;;;0.39;68.94;99687.28;5073388;28;20041;-61
2021/03/18 06:58:19;;;;;;;8.55;4.32;;;;;;;0.50;68.71;99690.00;5073147;28;20525;-62
2021/03/18 07:00:49;;;;;;;11.85;5.10;;;;;;;0.54;68.58;99690.63;5073329;28;20073;-62
2021/03/18 07:03:27;;;;;;;8.75;5.35;;;;;;;0.67;68.57;99689.63;5073314;28;20417;-62
2021/03/18 07:05:54;;;;;;;12.77;5.50;;;;;;;0.79;68.52;99687.13;5073139;28;20036;-62
2021/03/18 07:08:23;;;;;;;8.60;4.97;;;;;;;0.91;67.95;99688.84;5072951;28;20043;-62
2021/03/18 07:10:49;;;;;;;13.30;5.15;;;;;;;1.03;67.81;99689.75;5072995;28;20051;-63
2021/03/18 07:13:22;;;;;;;11.80;5.45;;;;;;;1.05;67.57;99688.69;5072974;28;20079;-63
2021/03/18 07:15:52;;;;;;;11.30;5.57;;;;;;;1.07;67.52;99685.97;5074239;28;20043;-63
2021/03/18 07:18:19;;;;;;;11.23;5.55;;;;;;;1.17;67.43;99694.78;5076373;28;20506;-62
2021/03/18 07:20:57;;;;;;;14.00;5.95;;;;;;;1.31;67.36;99688.59;5077032;28;20123;-62
2021/03/18 07:23:33;;;;;;;13.63;6.15;;;;;;;1.42;67.33;99696.41;5074902;28;20450;-62
2021/03/18 07:26:00;;;;;;;12.20;6.22;;;;;;;1.55;67.07;99694.59;5072151;28;20647;-62
2021/03/18 07:28:27;;;;;;;14.07;6.80;;;;;;;1.64;67.05;99686.09;5072781;28;20048;-62
2021/03/18 07:30:56;;;;;;;9.88;5.88;;;;;;;1.65;67.06;99677.31;5072780;28;20075;-63
2021/03/18 07:33:23;;;;;;;10.38;5.88;;;;;;;1.79;66.94;99676.28;5072590;28;20131;-63
2021/03/18 07:35:50;;;;;;;8.85;5.95;;;;;;;1.90;66.83;99680.69;5072336;28;20041;-62
2021/03/18 07:38:17;;;;;;;9.25;5.75;;;;;;;2.00;66.83;99676.44;5072909;28;20047;-62
2021/03/18 07:40:44;;;;;;;9.38;5.75;;;;;;;2.16;66.39;99673.47;5072608;28;20045;-63
2021/03/18 07:43:12;;;;;;;8.98;6.05;;;;;;;2.28;66.03;99671.72;5072538;28;20052;-63
2021/03/18 07:45:39;;;;;;;8.57;5.53;;;;;;;2.35;65.78;99671.13;5071106;28;20053;-63
2021/03/18 07:48:07;;;;;;;10.77;6.13;;;;;;;2.45;65.53;99669.47;5070968;28;20080;-64
2021/03/18 07:50:39;;;;;;;8.70;5.72;;;;;;;2.48;65.03;99663.16;5072438;28;20063;-64
2021/03/18 07:53:09;;;;;;;9.40;5.47;;;;;;;2.51;65.24;99662.09;5072781;28;20102;-64
2021/03/18 07:55:38;;;;;;;7.38;5.82;;;;;;;2.58;65.17;99658.06;5072421;28;20064;-64
2021/03/18 07:58:05;;;;;;;12.82;6.63;;;;;;;2.63;64.70;99642.88;5072205;28;20052;-63
2021/03/18 08:00:33;;;;;;;11.27;6.93;;;;;;;2.56;64.38;99647.72;5073101;28;20540;-63
2021/03/18 08:03:29;;;;;;;12.35;6.95;;;;;;;2.57;64.91;99640.72;5072149;28;20091;-62
2021/03/18 08:05:57;;;;;;;9.63;6.15;;;;;;;2.66;65.19;99643.47;5072597;28;20048;-62
2021/03/18 08:08:41;;;;;;;14.23;7.07;;;;;;;2.66;65.04;99647.84;5073010;28;20044;-62
2021/03/18 08:11:11;;;;;;;11.52;6.93;;;;;;;2.67;64.79;99658.16;5072496;28;20041;-62
2021/03/18 08:13:39;;;;;;;12.45;6.20;;;;;;;2.61;64.26;99653.44;5072941;28;20059;-63
2021/03/18 08:16:08;;;;;;;9.43;6.28;;;;;;;2.55;64.43;99661.75;5073977;28;20039;-63
2021/03/18 08:18:40;;;;;;;10.43;6.30;;;;;;;2.65;64.62;99659.22;5073557;28;20075;-63
2021/03/18 08:21:09;;;;;;;9.85;6.25;;;;;;;2.86;64.82;99648.88;5074215;28;20050;-62
2021/03/18 08:23:44;;;;;;;10.85;6.28;;;;;;;3.02;63.76;99649.31;5073871;28;20045;-63
2021/03/18 08:26:18;;;;;;;9.38;6.25;;;;;;;3.03;63.54;99650.13;5074295;28;20051;-63
2021/03/18 08:28:47;;;;;;;14.40;7.53;;;;;;;3.18;63.91;99652.34;5073134;28;20044;-64
2021/03/18 08:31:17;;;;;;;8.73;6.40;;;;;;;3.31;63.35;99651.34;5072066;28;20495;-64
2021/03/18 08:33:47;;;;;;;13.45;6.32;;;;;;;3.41;63.14;99647.84;5071940;28;20048;-64
2021/03/18 08:36:27;;;;;;;10.27;6.43;;;;;;;3.54;62.74;99647.66;5070244;28;20047;-64
2021/03/18 08:38:56;;;;;;;8.68;5.40;;;;;;;3.75;62.87;99644.19;5071702;28;20062;-63
2021/03/18 08:41:29;;;;;;;9.90;6.13;;;;;;;3.95;63.04;99649.41;5070476;28;20044;-64
2021/03/18 08:44:18;;;;;;;12.20;6.45;;;;;;;4.16;62.56;99644.16;5071864;28;20052;-63
2021/03/18 08:46:51;;;;;;;7.90;6.25;;;;;;;4.30;62.19;99644.75;5071705;28;20044;-63
2021/03/18 08:49:25;;;;;;;11.40;6.00;;;;;;;4.40;61.31;99640.38;5071516;28;20048;-63
2021/03/18 08:51:53;;;;;;;7.05;5.75;;;;;;;4.35;61.35;99638.16;5071780;28;20044;-63
2021/03/18 08:54:52;;;;;;;11.30;6.53;;;;;;;4.52;61.14;99638.50;5071556;28;20041;-63
2021/03/18 08:57:30;;;;;;;10.50;6.63;;;;;;;4.51;60.83;99634.22;5071727;28;20052;-63
2021/03/18 09:00:07;;;;;;;11.23;6.35;;;;;;;4.59;60.63;99644.84;5071646;28;20135;-64
2021/03/18 09:02:35;;;;;;;14.95;6.95;;;;;;;4.62;60.57;99628.88;5072123;28;20094;-63
2021/03/18 09:05:06;;;;;;;8.60;5.65;;;;;;;4.79;59.65;99633.47;5071483;28;20044;-63
2021/03/18 09:07:33;;;;;;;12.00;6.43;;;;;;;4.80;59.57;99632.50;5071645;28;20546;-63
2021/03/18 09:10:05;;;;;;;12.45;6.40;;;;;;;4.84;59.27;99633.06;5071947;28;20063;-63
2021/03/18 09:12:42;;;;;;;10.80;6.40;;;;;;;4.97;58.81;99639.69;5070474;28;20053;-64
2021/03/18 09:15:22;;;;;;;10.73;6.05;;;;;;;4.99;58.36;99639.56;5071493;28;20513;-64
2021/03/18 09:17:51;;;;;;;12.73;6.07;;;;;;;5.13;58.45;99641.75;5071485;28;20055;-64
2021/03/18 09:20:23;;;;;;;8.77;4.90;;;;;;;5.24;57.74;99635.56;5071636;28;20379;-65
2021/03/18 09:22:49;;;;;;;9.35;4.95;;;;;;;5.28;57.37;99636.13;5071678;28;20052;-64
2021/03/18 09:25:16;;;;;;;7.05;4.35;;;;;;;5.43;56.92;99630.34;5070086;28;20503;-64
2021/03/18 09:27:45;;;;;;;7.95;4.47;;;;;;;5.59;56.61;99616.66;5071501;28;20055;-65
2021/03/18 09:30:34;;;;;;;9.38;4.68;;;;;;;5.79;55.64;99620.03;5071093;28;20462;-64
2021/03/18 09:33:03;;;;;;;6.05;4.53;;;;;;;5.85;53.99;99622.09;5068476;28;20057;-64
2021/03/18 09:35:31;;;;;;;8.07;4.55;;;;;;;5.84;53.97;99617.84;5071080;28;20491;-64
2021/03/18 09:37:58;;;;;;;6.53;3.97;;;;;;;5.83;52.84;99618.78;5072894;28;20041;-64
2021/03/18 09:40:33;;;;;;;10.45;4.28;;;;;;;5.75;52.49;99620.47;5074729;28;20049;-64
2021/03/18 09:43:03;;;;;;;7.20;4.15;;;;;;;5.76;52.94;99620.34;5074859;28;20123;-65
2021/03/18 09:45:30;;;;;;;8.32;4.18;;;;;;;5.91;52.88;99618.91;5074515;28;20402;-65
2021/03/18 09:47:57;;;;;;;15.32;4.20;;;;;;;5.95;52.61;99616.84;5074622;28;20041;-64
2021/03/18 09:50:27;;;;;;;10.27;4.53;;;;;;;6.10;51.93;99607.53;5074444;28;20117;-64
2021/03/18 09:53:11;;;;;;;4.93;3.58;;;;;;;6.12;50.46;99615.28;5074605;28;20054;-64
2021/03/18 09:55:39;;;;;;;6.63;3.90;;;;;;;6.33;51.02;99609.81;5074513;28;20063;-64
2021/03/18 09:58:10;;;;;;;5.82;3.17;;;;;;;6.33;49.22;99609.81;5074288;28;20082;-64
2021/03/18 10:00:38;;;;;;;7.82;3.80;;;;;;;6.38;49.66;99608.41;5073057;28;20053;-64
2021/03/18 10:03:06;;;;;;;7.43;3.33;;;;;;;6.59;49.61;99600.25;5074505;28;20055;-65
2021/03/18 10:05:33;;;;;;;5.40;3.75;;;;;;;6.66;48.97;99601.31;5074192;28;20075;-64
2021/03/18 10:08:01;;;;;;;6.85;3.50;;;;;;;6.88;49.01;99600.06;5074348;28;20490;-63
2021/03/18 10:10:31;;;;;;;7.20;3.75;;;;;;;6.96;48.64;99594.06;5074239;28;20048;-65
2021/03/18 10:13:01;;;;;;;5.03;3.08;;;;;;;6.95;48.34;99593.25;5074377;28;20670;-64
2021/03/18 10:15:29;;;;;;;6.55;4.75;;;;;;;7.19;48.12;99586.56;5074026;28;20494;-64
2021/03/18 10:17:57;;;;;;;6.07;4.20;;;;;;;7.26;47.70;99594.63;5073063;28;20045;-64
2021/03/18 10:20:29;;;;;;;6.55;4.78;;;;;;;7.40;47.90;99584.41;5074352;28;20047;-64
2021/03/18 10:23:02;;;;;;;10.65;5.82;;;;;;;7.45;46.33;99578.69;5074183;28;20456;-64
2021/03/18 10:25:32;;;;;;;6.80;4.90;;;;;;;7.55;46.49;99575.94;5074081;28;20040;-64
2021/03/18 10:28:04;;;;;;;5.45;3.78;;;;;;;7.76;46.61;99570.34;5073800;28;20289;-64
2021/03/18 10:30:32;;;;;;;7.25;3.53;;;;;;;7.91;46.78;99561.69;5073946;28;20040;-64
2021/03/18 10:33:05;;;;;;;7.75;4.00;;;;;;;8.04;46.67;99557.81;5074026;28;20068;-64
2021/03/18 10:35:34;;;;;;;21.80;12.85;;;;;;;7.87;45.66;99555.09;5073758;28;20045;-64
2021/03/18 10:38:03;;;;;;;9.20;4.13;;;;;;;7.84;45.25;99552.78;5073779;28;20127;-65
2021/03/18 10:40:37;;;;;;;6.53;3.30;;;;;;;7.92;43.92;99541.47;5073855;28;20047;-64
2021/03/18 10:43:19;;;;;;;6.10;3.75;;;;;;;8.10;44.29;99547.47;5074061;28;20067;-64
2021/03/18 10:45:46;;;;;;;4.70;3.38;;;;;;;8.08;44.45;99544.19;5073961;28;20036;-65
2021/03/18 10:48:19;;;;;;;4.50;3.60;;;;;;;8.09;44.46;99545.84;5074216;28;20407;-64
2021/03/18 10:50:47;;;;;;;5.18;3.20;;;;;;;8.08;44.19;99538.06;5073282;28;20513;-64
2021/03/18 10:53:15;;;;;;;5.50;3.55;;;;;;;8.15;44.64;99536.47;5073878;28;20052;-64
2021/03/18 10:55:50;;;;;;;5.05;3.00;;;;;;;8.37;44.58;99537.75;5081685;28;20072;-65
2021/03/18 10:58:20;;;;;;;7.60;3.23;;;;;;;8.42;43.31;99532.81;5097542;28;20053;-62
2021/03/18 11:00:48;;;;;;;7.10;2.50;;;;;;;8.47;42.13;99533.13;5093238;28;20065;-64
2021/03/18 11:03:17;;;;;;;3.22;2.45;;;;;;;8.49;41.28;99527.69;5074324;28;20113;-64
2021/03/18 11:05:47;;;;;;;3.28;2.33;;;;;;;8.56;41.37;99526.06;5073259;28;20485;-65
2021/03/18 11:08:15;;;;;;;4.28;2.25;;;;;;;8.77;41.19;99530.88;5073304;28;20071;-65
2021/03/18 11:10:47;;;;;;;4.82;2.53;;;;;;;8.61;40.53;99523.75;5073109;28;20036;-64
2021/03/18 11:13:19;;;;;;;4.57;2.58;;;;;;;8.41;39.84;99524.06;5073210;28;20119;-64
2021/03/18 11:15:55;;;;;;;3.13;2.20;;;;;;;8.07;40.06;99523.25;5073021;28;20402;-65
2021/03/18 11:18:28;;;;;;;4.85;2.70;;;;;;;8.14;40.71;99511.13;5072836;28;20044;-64
2021/03/18 11:20:55;;;;;;;4.13;2.38;;;;;;;8.08;40.52;99517.84;5073012;28;20040;-64
2021/03/18 11:23:27;;;;;;;4.55;2.40;;;;;;;7.82;40.03;99512.63;5072824;28;20055;-64
2021/03/18 11:25:58;;;;;;;2.35;1.92;;;;;;;7.64;39.13;99510.09;5072867;28;20059;-64
2021/03/18 11:28:26;;;;;;;5.43;2.15;;;;;;;7.60;38.51;99507.91;5072691;28;20044;-65
2021/03/18 11:30:55;;;;;;;2.80;2.20;;;;;;;7.37;39.62;99510.25;5071320;28;20513;-64
2021/03/18 11:33:31;;;;;;;4.40;2.78;;;;;;;7.30;40.33;99507.38;5072807;28;20052;-63
2021/03/18 11:35:59;;;;;;;9.57;2.67;;;;;;;7.26;40.21;99502.59;5072560;28;20037;-64
2021/03/18 11:38:26;;;;;;;3.20;2.90;;;;;;;7.26;40.08;99502.59;5071045;28;20045;-64
2021/03/18 11:40:56;;;;;;;3.38;2.63;;;;;;;7.27;39.94;99502.47;5072532;28;20098;-65
2021/03/18 11:43:24;;;;;;;6.22;2.97;;;;;;;7.09;40.44;99497.22;5072420;28;20044;-64
2021/03/18 11:45:51;;;;;;;4.30;2.65;;;;;;;7.16;39.80;99497.44;5071175;28;20051;-65
2021/03/18 11:48:18;;;;;;;4.00;2.72;;;;;;;7.19;39.51;99490.06;5072623;28;20059;-65
2021/03/18 11:50:45;;;;;;;3.83;2.17;;;;;;;7.31;40.13;99477.50;5072496;28;20059;-65